createdAt,value
2022-11-14T00:00:08.110Z,22.42
2022-11-14T00:00:21.212Z,22.15
2022-11-14T00:00:34.100Z,22.27
2022-11-14T00:00:47.068Z,22.80
2022-11-14T00:00:59.901Z,23.52
2022-11-14T00:01:13.263Z,23.40
2022-11-14T00:01:45.968Z,21.25
2022-11-14T00:01:58.767Z,21.95
2022-11-14T00:02:11.633Z,20.90
2022-11-14T00:02:44.579Z,22.92
2022-11-14T00:03:17.305Z,21.45
2022-11-14T00:03:30.594Z,22.60
2022-11-14T00:03:43.425Z,21.75
2022-11-14T00:03:56.236Z,21.30
2022-11-14T00:04:09.068Z,21.42
2022-11-14T00:04:26.797Z,21.37
2022-11-14T00:04:54.711Z,21.55
2022-11-14T00:05:08.987Z,21.20
2022-11-14T00:05:21.921Z,21.65
2022-11-14T00:05:39.162Z,21.55
2022-11-14T00:05:52.156Z,22.17
2022-11-14T00:06:06.706Z,22.58
2022-11-14T00:06:19.923Z,22.80
2022-11-14T00:06:32.736Z,24.20
2022-11-14T00:06:45.700Z,23.80
2022-11-14T00:06:58.581Z,22.35
2022-11-14T00:07:11.509Z,21.15
2022-11-14T00:07:24.585Z,21.77
2022-11-14T00:07:37.889Z,23.42
2022-11-14T00:07:50.782Z,24.30
2022-11-14T00:08:03.639Z,23.87
2022-11-14T00:08:21.040Z,23.18
2022-11-14T00:08:33.892Z,21.73
2022-11-14T00:08:46.694Z,21.48
2022-11-14T00:08:59.497Z,21.23
2022-11-14T00:09:13.201Z,20.23
2022-11-14T00:09:27.003Z,21.20
2022-11-14T00:09:59.745Z,22.73
2022-11-14T00:10:32.515Z,22.55
2022-11-14T00:11:05.368Z,22.02
2022-11-14T00:11:18.321Z,20.60
2022-11-14T00:12:10.162Z,21.73
2022-11-14T00:13:01.875Z,22.48
2022-11-14T00:13:15.280Z,21.48
2022-11-14T00:13:28.149Z,20.65
2022-11-14T00:13:41.005Z,21.23
2022-11-14T00:13:53.847Z,22.35
2022-11-14T00:14:06.691Z,22.90
2022-11-14T00:14:19.501Z,22.30
2022-11-14T00:14:51.731Z,21.20
2022-11-14T00:15:04.891Z,20.95
2022-11-14T00:15:17.868Z,21.85
2022-11-14T00:15:30.763Z,22.45
2022-11-14T00:15:43.951Z,21.02
2022-11-14T00:15:56.819Z,20.85
2022-11-14T00:16:09.622Z,21.80
2022-11-14T00:16:22.538Z,22.62
2022-11-14T00:16:35.363Z,23.10
2022-11-14T00:17:09.053Z,22.25
2022-11-14T00:17:22.447Z,22.42
2022-11-14T00:17:35.271Z,22.85
2022-11-14T00:17:48.087Z,22.15
2022-11-14T00:18:01.791Z,22.73
2022-11-14T00:18:14.613Z,21.80
2022-11-14T00:18:27.729Z,20.23
2022-11-14T00:18:41.578Z,19.83
2022-11-14T00:18:54.500Z,21.33
2022-11-14T00:19:27.223Z,24.15
2022-11-14T00:19:40.344Z,22.35
2022-11-14T00:19:53.143Z,22.10
2022-11-14T00:20:06.966Z,21.42
2022-11-14T00:20:19.796Z,20.52
2022-11-14T00:20:32.795Z,21.17
2022-11-14T00:21:05.568Z,23.10
2022-11-14T00:21:18.403Z,22.00
2022-11-14T00:21:31.246Z,21.60
2022-11-14T00:21:44.734Z,21.60
2022-11-14T00:21:57.648Z,22.42
2022-11-14T00:22:10.493Z,22.13
2022-11-14T00:22:23.350Z,21.15
2022-11-14T00:22:36.174Z,21.95
2022-11-14T00:22:48.970Z,22.23
2022-11-14T00:23:01.791Z,22.25
2022-11-14T00:23:14.583Z,22.62
2022-11-14T00:23:27.406Z,23.65
2022-11-14T00:23:40.230Z,23.67
2022-11-14T00:23:53.124Z,22.92
2022-11-14T00:24:06.064Z,22.23
2022-11-14T00:24:19.041Z,21.70
2022-11-14T00:24:31.909Z,21.83
2022-11-14T00:24:44.769Z,21.40
2022-11-14T00:24:57.581Z,20.85
2022-11-14T00:25:10.407Z,22.27
2022-11-14T00:25:44.466Z,24.48
2022-11-14T00:25:57.295Z,23.58
2022-11-14T00:26:10.116Z,22.87
2022-11-14T00:26:23.423Z,23.42
2022-11-14T00:26:36.233Z,22.73
2022-11-14T00:26:49.066Z,21.85
2022-11-14T00:27:01.883Z,21.67
2022-11-14T00:27:34.998Z,21.08
2022-11-14T00:27:47.909Z,21.52
2022-11-14T00:28:00.809Z,22.45
2022-11-14T00:28:13.810Z,21.77
2022-11-14T00:28:26.789Z,22.20
2022-11-14T00:28:40.298Z,22.52
2022-11-14T00:28:54.325Z,21.82
2022-11-14T00:29:07.150Z,21.20
2022-11-14T00:29:20.199Z,21.67
2022-11-14T00:29:33.215Z,20.90
2022-11-14T00:29:46.259Z,20.77
2022-11-14T00:29:59.103Z,21.40
2022-11-14T00:30:11.998Z,21.50
2022-11-14T00:30:25.079Z,21.67
2022-11-14T00:30:57.827Z,22.20
2022-11-14T00:31:11.191Z,21.90
2022-11-14T00:31:24.106Z,20.83
2022-11-14T00:31:37.372Z,21.70
2022-11-14T00:31:50.255Z,22.52
2022-11-14T00:32:03.072Z,22.27
2022-11-14T00:32:35.802Z,20.75
2022-11-14T00:32:48.618Z,21.48
2022-11-14T00:33:01.487Z,22.15
2022-11-14T00:33:19.762Z,22.50
2022-11-14T00:33:33.264Z,22.42
2022-11-14T00:33:46.081Z,21.35
2022-11-14T00:33:59.121Z,22.52
2022-11-14T00:34:12.971Z,22.75
2022-11-14T00:34:25.788Z,21.95
2022-11-14T00:34:39.052Z,21.87
2022-11-14T00:34:52.335Z,21.60
2022-11-14T00:35:25.078Z,21.02
2022-11-14T00:35:57.799Z,21.42
2022-11-14T00:36:10.586Z,21.45
2022-11-14T00:36:23.623Z,20.90
2022-11-14T00:36:36.728Z,20.50
2022-11-14T00:36:49.562Z,20.12
2022-11-14T00:37:02.393Z,19.42
2022-11-14T00:37:15.315Z,19.55
2022-11-14T00:37:28.215Z,20.02
2022-11-14T00:37:41.033Z,21.73
2022-11-14T00:37:54.006Z,22.02
2022-11-14T00:38:06.958Z,20.85
2022-11-14T00:38:39.699Z,21.98
2022-11-14T00:38:54.749Z,22.50
2022-11-14T00:39:27.841Z,20.88
2022-11-14T00:39:41.149Z,20.92
2022-11-14T00:39:53.968Z,20.65
2022-11-14T00:40:45.139Z,23.42
2022-11-14T00:40:58.119Z,22.80
2022-11-14T00:41:12.861Z,22.37
2022-11-14T00:41:25.666Z,22.20
2022-11-14T00:41:38.573Z,21.87
2022-11-14T00:41:51.631Z,21.02
2022-11-14T00:42:04.564Z,20.90
2022-11-14T00:42:17.478Z,21.60
2022-11-14T00:42:30.339Z,21.95
2022-11-14T00:42:43.226Z,21.05
2022-11-14T00:42:56.355Z,21.25
2022-11-14T00:43:29.128Z,20.80
2022-11-14T00:43:41.957Z,20.90
2022-11-14T00:43:54.773Z,20.98
2022-11-14T00:44:07.875Z,20.23
2022-11-14T00:44:20.756Z,20.30
2022-11-14T00:44:33.921Z,21.08
2022-11-14T00:44:46.794Z,20.75
2022-11-14T00:45:00.024Z,20.88
2022-11-14T00:45:12.859Z,21.50
2022-11-14T00:45:25.705Z,22.27
2022-11-14T00:46:17.558Z,22.90
2022-11-14T00:46:48.803Z,22.30
2022-11-14T00:47:02.055Z,22.10
2022-11-14T00:47:34.793Z,21.95
2022-11-14T00:47:47.718Z,22.40
2022-11-14T00:48:03.360Z,22.70
2022-11-14T00:48:16.430Z,22.02
2022-11-14T00:48:29.508Z,22.62
2022-11-14T00:48:42.843Z,22.42
2022-11-14T00:48:57.278Z,21.67
2022-11-14T00:49:10.278Z,21.98
2022-11-14T00:49:23.081Z,22.02
2022-11-14T00:49:36.091Z,21.48
2022-11-14T00:49:48.977Z,21.80
2022-11-14T00:50:01.825Z,21.75
2022-11-14T00:50:16.411Z,22.48
2022-11-14T00:50:29.341Z,21.48
2022-11-14T00:50:42.290Z,21.73
2022-11-14T00:50:55.125Z,21.23
2022-11-14T00:51:08.143Z,21.40
2022-11-14T00:51:41.341Z,20.85
2022-11-14T00:51:54.163Z,22.05
2022-11-14T00:52:07.008Z,21.12
2022-11-14T00:52:19.826Z,20.50
2022-11-14T00:52:32.671Z,21.42
2022-11-14T00:52:45.502Z,21.15
2022-11-14T00:52:58.807Z,21.70
2022-11-14T00:53:13.126Z,21.35
2022-11-14T00:53:26.104Z,21.52
2022-11-14T00:53:38.891Z,22.02
2022-11-14T00:54:11.657Z,21.90
2022-11-14T00:54:44.383Z,22.60
2022-11-14T00:55:17.226Z,20.50
2022-11-14T00:55:30.051Z,19.98
2022-11-14T00:55:43.106Z,20.62
2022-11-14T00:55:56.136Z,20.35
2022-11-14T00:56:29.347Z,21.23
2022-11-14T00:56:42.192Z,21.23
2022-11-14T00:56:55.664Z,21.20
2022-11-14T00:57:08.499Z,20.98
2022-11-14T00:57:21.687Z,21.20
2022-11-14T00:57:34.518Z,20.67
2022-11-14T00:57:47.340Z,20.80
2022-11-14T00:58:01.108Z,20.10
2022-11-14T00:58:13.993Z,20.77
2022-11-14T00:58:27.290Z,21.25
2022-11-14T00:58:40.382Z,21.50
2022-11-14T00:58:53.218Z,22.00
2022-11-14T00:59:06.056Z,21.75
2022-11-14T00:59:18.880Z,21.37
2022-11-14T00:59:31.721Z,20.73
2022-11-14T00:59:44.962Z,21.62
2022-11-14T00:59:57.799Z,22.45
2022-11-14T01:00:13.256Z,21.65
2022-11-14T01:00:26.151Z,21.75
2022-11-14T01:00:39.205Z,22.00
2022-11-14T01:00:52.374Z,21.17
2022-11-14T01:01:05.341Z,20.62
2022-11-14T01:01:21.193Z,20.20
2022-11-14T01:01:36.925Z,20.77
2022-11-14T01:01:52.902Z,20.48
2022-11-14T01:02:08.223Z,21.35
2022-11-14T01:02:21.800Z,21.83
2022-11-14T01:02:56.949Z,21.58
2022-11-14T01:03:09.814Z,22.75
2022-11-14T01:03:22.837Z,21.73
2022-11-14T01:03:37.054Z,21.83
2022-11-14T01:03:50.401Z,20.98
2022-11-14T01:04:25.065Z,20.58
2022-11-14T01:04:57.894Z,19.40
2022-11-14T01:05:10.896Z,19.05
2022-11-14T01:05:24.774Z,20.30
2022-11-14T01:05:57.514Z,22.27
2022-11-14T01:06:11.406Z,20.98
2022-11-14T01:06:44.150Z,21.25
2022-11-14T01:06:57.057Z,20.58
2022-11-14T01:07:09.861Z,21.60
2022-11-14T01:07:22.723Z,22.05
2022-11-14T01:07:35.589Z,21.27
2022-11-14T01:08:08.339Z,22.02
2022-11-14T01:08:21.200Z,21.50
2022-11-14T01:08:54.065Z,21.23
2022-11-14T01:09:07.362Z,20.90
2022-11-14T01:09:20.405Z,21.98
2022-11-14T01:09:33.478Z,21.55
2022-11-14T01:09:46.405Z,20.98
2022-11-14T01:09:59.238Z,21.33
2022-11-14T01:10:12.040Z,23.55
2022-11-14T01:10:24.913Z,24.67
2022-11-14T01:10:57.640Z,21.60
2022-11-14T01:11:30.413Z,22.42
2022-11-14T01:11:43.315Z,22.25
2022-11-14T01:11:56.107Z,22.30
2022-11-14T01:12:08.942Z,21.15
2022-11-14T01:12:21.851Z,20.67
2022-11-14T01:12:34.881Z,20.67
2022-11-14T01:12:47.714Z,21.05
2022-11-14T01:13:00.938Z,21.23
2022-11-14T01:13:13.838Z,21.87
2022-11-14T01:13:26.977Z,21.30
2022-11-14T01:13:39.863Z,20.95
2022-11-14T01:14:31.118Z,21.70
2022-11-14T01:14:43.979Z,21.10
2022-11-14T01:14:56.872Z,20.70
2022-11-14T01:15:09.920Z,20.80
2022-11-14T01:15:22.798Z,21.40
2022-11-14T01:15:42.333Z,20.92
2022-11-14T01:15:55.373Z,21.23
2022-11-14T01:16:09.460Z,24.30
2022-11-14T01:16:22.334Z,24.12
2022-11-14T01:16:55.078Z,20.50
2022-11-14T01:17:08.000Z,21.08
2022-11-14T01:17:37.214Z,22.15
2022-11-14T01:17:50.124Z,21.87
2022-11-14T01:18:03.171Z,22.17
2022-11-14T01:18:17.828Z,21.02
2022-11-14T01:18:31.485Z,19.65
2022-11-14T01:18:44.619Z,20.30
2022-11-14T01:18:57.553Z,20.58
2022-11-14T01:19:11.256Z,20.80
2022-11-14T01:19:24.083Z,21.48
2022-11-14T01:19:56.863Z,21.33
2022-11-14T01:20:10.314Z,22.35
2022-11-14T01:20:43.653Z,21.48
2022-11-14T01:21:16.937Z,21.27
2022-11-14T01:21:29.941Z,22.00
2022-11-14T01:21:42.895Z,20.98
2022-11-14T01:21:55.693Z,20.45
2022-11-14T01:22:08.541Z,21.15
2022-11-14T01:22:21.397Z,21.95
2022-11-14T01:22:34.253Z,20.33
2022-11-14T01:22:47.085Z,20.48
2022-11-14T01:22:59.943Z,21.10
2022-11-14T01:23:13.383Z,21.65
2022-11-14T01:23:26.657Z,21.80
2022-11-14T01:24:18.433Z,21.67
2022-11-14T01:24:33.236Z,22.35
2022-11-14T01:25:06.868Z,22.02
2022-11-14T01:25:40.360Z,21.27
2022-11-14T01:25:53.191Z,21.02
2022-11-14T01:26:07.904Z,19.75
2022-11-14T01:26:21.180Z,19.87
2022-11-14T01:26:34.247Z,21.20
2022-11-14T01:27:06.998Z,20.92
2022-11-14T01:27:19.802Z,20.67
2022-11-14T01:27:32.723Z,20.45
2022-11-14T01:27:45.585Z,21.30
2022-11-14T01:27:58.481Z,21.50
2022-11-14T01:28:16.379Z,21.17
2022-11-14T01:28:29.451Z,21.05
2022-11-14T01:28:42.461Z,21.23
2022-11-14T01:28:55.317Z,20.80
2022-11-14T01:29:08.209Z,20.12
2022-11-14T01:29:21.065Z,20.65
2022-11-14T01:29:33.874Z,21.37
2022-11-14T01:29:46.688Z,21.30
2022-11-14T01:29:59.585Z,22.02
2022-11-14T01:30:13.074Z,22.80
2022-11-14T01:30:25.957Z,21.75
2022-11-14T01:30:38.895Z,21.37
2022-11-14T01:31:32.770Z,22.27
2022-11-14T01:31:45.607Z,21.52
2022-11-14T01:31:58.726Z,21.05
2022-11-14T01:32:11.553Z,21.67
2022-11-14T01:32:42.925Z,22.35
2022-11-14T01:32:55.747Z,22.85
2022-11-14T01:33:08.673Z,21.27
2022-11-14T01:33:21.663Z,21.27
2022-11-14T01:33:54.539Z,22.67
2022-11-14T01:34:07.499Z,21.65
2022-11-14T01:34:40.261Z,22.23
2022-11-14T01:34:53.082Z,22.37
2022-11-14T01:35:06.153Z,21.20
2022-11-14T01:35:19.000Z,21.77
2022-11-14T01:35:32.725Z,21.12
2022-11-14T01:35:45.596Z,21.33
2022-11-14T01:35:59.999Z,21.25
2022-11-14T01:36:12.801Z,20.62
2022-11-14T01:36:26.075Z,20.65
2022-11-14T01:36:38.898Z,21.00
2022-11-14T01:36:52.250Z,21.85
2022-11-14T01:37:05.272Z,21.86
2022-11-14T01:37:18.515Z,20.95
2022-11-14T01:37:52.116Z,22.02
2022-11-14T01:38:05.142Z,22.35
2022-11-14T01:38:58.647Z,21.23
2022-11-14T01:39:11.940Z,22.55
2022-11-14T01:39:26.566Z,23.52
2022-11-14T01:39:39.390Z,23.42
2022-11-14T01:39:52.236Z,22.02
2022-11-14T01:40:06.401Z,22.50
2022-11-14T01:40:19.219Z,22.48
2022-11-14T01:40:32.323Z,21.70
2022-11-14T01:40:45.400Z,21.30
2022-11-14T01:40:58.203Z,21.65
2022-11-14T01:41:13.367Z,21.65
2022-11-14T01:41:26.849Z,20.88
2022-11-14T01:41:39.664Z,20.45
2022-11-14T01:41:52.544Z,21.08
2022-11-14T01:42:05.412Z,21.65
2022-11-14T01:42:20.118Z,21.00
2022-11-14T01:42:34.819Z,21.33
2022-11-14T01:43:25.094Z,21.83
2022-11-14T01:43:38.653Z,21.80
2022-11-14T01:43:51.512Z,21.02
2022-11-14T01:44:05.231Z,22.00
2022-11-14T01:44:49.160Z,20.40
2022-11-14T01:45:01.963Z,20.95
2022-11-14T01:45:52.316Z,20.92
2022-11-14T01:46:33.521Z,21.52
2022-11-14T01:46:47.429Z,21.62
2022-11-14T01:47:21.779Z,20.98
2022-11-14T01:47:54.468Z,21.83
2022-11-14T01:48:30.309Z,20.75
2022-11-14T01:48:45.256Z,21.36
2022-11-14T01:49:02.681Z,21.12
2022-11-14T01:49:26.718Z,20.77
2022-11-14T01:49:41.866Z,19.80
2022-11-14T01:49:56.587Z,19.17
2022-11-14T01:50:30.727Z,21.40
2022-11-14T01:50:43.582Z,20.92
2022-11-14T01:50:59.930Z,21.80
2022-11-14T01:51:42.538Z,21.95
2022-11-14T01:52:02.831Z,23.00
2022-11-14T01:52:22.450Z,23.33
2022-11-14T01:52:36.293Z,21.30
2022-11-14T01:52:49.363Z,21.12
2022-11-14T01:53:02.188Z,20.67
2022-11-14T01:53:55.297Z,20.65
2022-11-14T01:54:18.850Z,21.52
2022-11-14T01:54:37.234Z,21.52
2022-11-14T01:54:52.496Z,20.92
2022-11-14T01:55:07.959Z,21.90
2022-11-14T01:55:40.685Z,20.25
2022-11-14T01:55:54.762Z,20.17
2022-11-14T01:56:08.276Z,20.75
2022-11-14T01:56:28.328Z,21.08
2022-11-14T01:57:02.053Z,21.37
2022-11-14T01:57:38.825Z,20.60
2022-11-14T01:57:51.899Z,21.12
2022-11-14T01:58:24.843Z,22.90
2022-11-14T01:59:01.634Z,20.95
2022-11-14T01:59:36.576Z,20.85
2022-11-14T01:59:52.556Z,21.08
2022-11-14T02:00:08.416Z,21.80
2022-11-14T02:00:21.655Z,21.40
2022-11-14T02:00:55.033Z,21.70
2022-11-14T02:01:07.929Z,21.52
2022-11-14T02:01:21.145Z,21.27
2022-11-14T02:01:51.746Z,21.85
2022-11-14T02:02:25.615Z,20.55
2022-11-14T02:02:58.794Z,20.75
2022-11-14T02:03:15.149Z,20.45
2022-11-14T02:03:28.163Z,21.25
2022-11-14T02:03:41.848Z,21.77
2022-11-14T02:03:54.681Z,21.95
2022-11-14T02:04:08.855Z,21.50
2022-11-14T02:04:32.740Z,20.92
2022-11-14T02:04:47.615Z,21.02
2022-11-14T02:05:08.234Z,21.50
2022-11-14T02:05:41.640Z,22.70
2022-11-14T02:05:54.481Z,23.15
2022-11-14T02:06:08.076Z,21.80
2022-11-14T02:06:22.662Z,24.02
2022-11-14T02:06:35.723Z,24.30
2022-11-14T02:07:10.708Z,22.87
2022-11-14T02:07:24.672Z,22.85
2022-11-14T02:08:34.586Z,19.55
2022-11-14T02:09:07.592Z,21.77
2022-11-14T02:09:20.624Z,22.13
2022-11-14T02:09:36.572Z,21.62
2022-11-14T02:09:49.695Z,21.60
2022-11-14T02:10:06.636Z,23.05
2022-11-14T02:10:40.119Z,23.23
2022-11-14T02:11:13.029Z,22.50
2022-11-14T02:11:46.178Z,22.00
2022-11-14T02:11:59.220Z,21.42
2022-11-14T02:12:50.972Z,22.27
2022-11-14T02:13:04.166Z,21.00
2022-11-14T02:13:17.147Z,22.00
2022-11-14T02:13:30.195Z,24.23
2022-11-14T02:13:43.389Z,23.30
2022-11-14T02:14:16.183Z,21.08
2022-11-14T02:15:08.241Z,22.58
2022-11-14T02:15:21.310Z,22.30
2022-11-14T02:15:34.836Z,22.73
2022-11-14T02:15:47.704Z,21.87
2022-11-14T02:16:00.523Z,21.12
2022-11-14T02:16:13.387Z,20.65
2022-11-14T02:17:07.288Z,21.67
2022-11-14T02:17:34.489Z,20.25
2022-11-14T02:17:47.529Z,23.62
2022-11-14T02:18:01.272Z,22.83
2022-11-14T02:18:34.200Z,22.05
2022-11-14T02:19:07.133Z,23.67
2022-11-14T02:19:19.976Z,23.70
2022-11-14T02:20:11.549Z,22.95
2022-11-14T02:20:33.191Z,23.05
2022-11-14T02:21:16.601Z,21.75
2022-11-14T02:21:29.737Z,22.52
2022-11-14T02:21:42.536Z,22.83
2022-11-14T02:21:55.374Z,22.10
2022-11-14T02:22:08.322Z,22.37
2022-11-14T02:22:41.736Z,22.87
2022-11-14T02:22:54.870Z,23.17
2022-11-14T02:23:07.707Z,23.48
2022-11-14T02:23:30.458Z,23.20
2022-11-14T02:23:43.637Z,20.42
2022-11-14T02:23:56.620Z,20.55
2022-11-14T02:24:13.051Z,22.20
2022-11-14T02:24:25.901Z,23.58
2022-11-14T02:24:38.992Z,23.90
2022-11-14T02:24:52.013Z,23.02
2022-11-14T02:25:43.221Z,22.05
2022-11-14T02:25:56.309Z,22.20
2022-11-14T02:26:09.416Z,22.75
2022-11-14T02:26:22.695Z,22.70
2022-11-14T02:26:55.606Z,23.25
2022-11-14T02:27:08.740Z,22.85
2022-11-14T02:27:21.768Z,21.50
2022-11-14T02:27:54.500Z,22.17
2022-11-14T02:28:07.830Z,21.15
2022-11-14T02:28:21.916Z,21.75
2022-11-14T02:28:34.757Z,22.95
2022-11-14T02:29:07.402Z,23.40
2022-11-14T02:29:40.433Z,22.35
2022-11-14T02:29:54.448Z,22.45
2022-11-14T02:30:09.303Z,22.62
2022-11-14T02:30:23.314Z,22.83
2022-11-14T02:30:36.233Z,22.20
2022-11-14T02:30:49.103Z,21.58
2022-11-14T02:31:01.932Z,21.95
2022-11-14T02:31:15.135Z,22.13
2022-11-14T02:31:27.983Z,21.67
2022-11-14T02:32:00.771Z,23.50
2022-11-14T02:32:13.621Z,23.33
2022-11-14T02:33:19.164Z,21.80
2022-11-14T02:33:32.236Z,23.05
2022-11-14T02:34:04.959Z,24.20
2022-11-14T02:34:20.246Z,23.85
2022-11-14T02:34:33.580Z,23.80
2022-11-14T02:34:46.391Z,23.25
2022-11-14T02:35:20.112Z,22.40
2022-11-14T02:35:32.931Z,23.98
2022-11-14T02:35:45.800Z,23.35
2022-11-14T02:35:58.938Z,21.95
2022-11-14T02:36:11.779Z,22.60
2022-11-14T02:36:24.675Z,22.70
2022-11-14T02:36:37.491Z,21.75
2022-11-14T02:36:50.424Z,22.42
2022-11-14T02:37:03.217Z,23.38
2022-11-14T02:37:16.327Z,23.23
2022-11-14T02:38:07.613Z,23.25
2022-11-14T02:38:20.564Z,23.55
2022-11-14T02:38:33.619Z,22.58
2022-11-14T02:39:06.365Z,23.10
2022-11-14T02:39:19.189Z,23.17
2022-11-14T02:39:32.156Z,22.25
2022-11-14T02:40:07.579Z,21.80
2022-11-14T02:40:20.467Z,22.75
2022-11-14T02:40:33.335Z,21.70
2022-11-14T02:40:46.628Z,21.45
2022-11-14T02:41:00.345Z,22.27
2022-11-14T02:41:13.159Z,23.80
2022-11-14T02:41:26.062Z,22.70
2022-11-14T02:41:38.865Z,21.80
2022-11-14T02:41:52.139Z,21.48
2022-11-14T02:42:04.981Z,21.70
2022-11-14T02:42:17.792Z,21.35
2022-11-14T02:42:30.725Z,22.20
2022-11-14T02:42:43.775Z,22.52
2022-11-14T02:42:56.915Z,22.80
2022-11-14T02:43:09.724Z,23.05
2022-11-14T02:43:22.548Z,22.25
2022-11-14T02:43:35.411Z,23.02
2022-11-14T02:43:48.209Z,24.25
2022-11-14T02:44:20.957Z,23.77
2022-11-14T02:44:33.962Z,22.92
2022-11-14T02:44:46.760Z,23.08
2022-11-14T02:44:59.579Z,23.62
2022-11-14T02:45:12.888Z,23.02
2022-11-14T02:45:45.671Z,24.75
2022-11-14T02:46:18.403Z,22.98
2022-11-14T02:46:31.406Z,22.17
2022-11-14T02:47:04.178Z,24.45
2022-11-14T02:47:36.905Z,22.65
2022-11-14T02:47:49.750Z,23.25
2022-11-14T02:48:02.575Z,23.77
2022-11-14T02:48:15.843Z,23.65
2022-11-14T02:48:29.542Z,23.40
2022-11-14T02:48:42.582Z,23.10
2022-11-14T02:48:55.405Z,23.45
2022-11-14T02:49:08.223Z,22.87
2022-11-14T02:49:21.159Z,24.08
2022-11-14T02:49:33.984Z,23.48
2022-11-14T02:49:46.875Z,23.10
2022-11-14T02:49:59.765Z,22.70
2022-11-14T02:50:12.838Z,22.98
2022-11-14T02:50:25.654Z,23.80
2022-11-14T02:50:58.383Z,25.23
2022-11-14T02:51:11.551Z,25.12
2022-11-14T02:51:24.549Z,24.73
2022-11-14T02:51:37.920Z,23.98
2022-11-14T02:51:50.739Z,23.05
2022-11-14T02:52:03.606Z,24.20
2022-11-14T02:52:16.697Z,24.48
2022-11-14T02:52:29.554Z,23.50
2022-11-14T02:52:42.484Z,23.33
2022-11-14T02:52:55.765Z,23.25
2022-11-14T02:53:08.642Z,22.48
2022-11-14T02:53:21.473Z,22.37
2022-11-14T02:53:34.356Z,23.38
2022-11-14T02:53:47.241Z,25.05
2022-11-14T02:54:00.086Z,23.17
2022-11-14T02:54:13.467Z,21.25
2022-11-14T02:54:26.350Z,22.60
2022-11-14T02:54:39.338Z,24.87
2022-11-14T02:54:54.644Z,24.58
2022-11-14T02:55:08.141Z,24.95
2022-11-14T02:55:21.542Z,23.17
2022-11-14T02:55:34.355Z,22.33
2022-11-14T02:55:47.179Z,23.33
2022-11-14T02:56:01.360Z,24.58
2022-11-14T02:56:34.202Z,23.10
2022-11-14T02:57:06.953Z,24.02
2022-11-14T02:57:19.755Z,22.42
2022-11-14T02:57:32.938Z,21.55
2022-11-14T02:58:06.016Z,24.58
2022-11-14T02:58:18.939Z,23.85
2022-11-14T02:58:32.144Z,23.45
2022-11-14T02:58:45.414Z,23.95
2022-11-14T02:58:58.565Z,22.95
2022-11-14T02:59:11.367Z,23.05
2022-11-14T02:59:24.231Z,23.67
2022-11-14T02:59:37.108Z,24.50
2022-11-14T02:59:49.939Z,23.67
2022-11-14T03:00:03.804Z,22.23
2022-11-14T03:00:38.578Z,22.87
2022-11-14T03:01:19.808Z,23.02
2022-11-14T03:02:03.873Z,22.67
2022-11-14T03:02:36.577Z,25.10
2022-11-14T03:03:09.307Z,23.67
2022-11-14T03:03:22.177Z,23.73
2022-11-14T03:03:55.496Z,24.52
2022-11-14T03:04:08.331Z,24.37
2022-11-14T03:04:21.178Z,25.20
2022-11-14T03:04:34.041Z,23.17
2022-11-14T03:04:46.884Z,22.58
2022-11-14T03:04:59.912Z,23.10
2022-11-14T03:05:13.116Z,24.27
2022-11-14T03:05:26.064Z,24.60
2022-11-14T03:05:38.866Z,23.50
2022-11-14T03:05:53.443Z,23.27
2022-11-14T03:06:06.879Z,23.85
2022-11-14T03:06:19.695Z,24.20
2022-11-14T03:06:32.523Z,23.95
2022-11-14T03:06:45.426Z,22.62
2022-11-14T03:06:58.339Z,22.15
2022-11-14T03:07:11.675Z,21.83
2022-11-14T03:07:24.615Z,22.42
2022-11-14T03:07:37.570Z,24.02
2022-11-14T03:07:53.886Z,24.65
2022-11-14T03:08:06.755Z,23.30
2022-11-14T03:08:20.062Z,23.02
2022-11-14T03:09:14.063Z,24.95
2022-11-14T03:09:26.864Z,24.60
2022-11-14T03:09:39.675Z,24.80
2022-11-14T03:09:52.621Z,25.08
2022-11-14T03:10:06.036Z,24.70
2022-11-14T03:10:19.331Z,23.17
2022-11-14T03:10:32.155Z,22.33
2022-11-14T03:11:06.350Z,23.60
2022-11-14T03:11:19.229Z,22.67
2022-11-14T03:11:32.048Z,21.90
2022-11-14T03:11:44.924Z,23.00
2022-11-14T03:11:57.728Z,24.08
2022-11-14T03:12:10.518Z,24.63
2022-11-14T03:12:23.762Z,23.38
2022-11-14T03:12:36.985Z,23.35
2022-11-14T03:12:55.824Z,22.98
2022-11-14T03:13:08.759Z,24.30
2022-11-14T03:13:21.628Z,24.42
2022-11-14T03:13:34.531Z,23.35
2022-11-14T03:13:48.380Z,21.90
2022-11-14T03:14:01.393Z,21.70
2022-11-14T03:14:14.238Z,23.40
2022-11-14T03:14:27.153Z,24.45
2022-11-14T03:14:40.120Z,23.67
2022-11-14T03:14:53.175Z,22.37
2022-11-14T03:15:06.437Z,21.95
2022-11-14T03:15:19.287Z,22.73
2022-11-14T03:15:32.115Z,23.10
2022-11-14T03:15:44.947Z,23.23
2022-11-14T03:15:58.344Z,23.75
2022-11-14T03:16:12.161Z,23.33
2022-11-14T03:16:25.030Z,22.95
2022-11-14T03:16:37.921Z,22.52
2022-11-14T03:16:50.843Z,21.12
2022-11-14T03:17:03.764Z,20.95
2022-11-14T03:17:16.659Z,22.02
2022-11-14T03:17:32.157Z,23.45
2022-11-14T03:17:44.999Z,24.33
2022-11-14T03:17:57.818Z,24.40
2022-11-14T03:18:10.781Z,24.17
2022-11-14T03:18:24.019Z,24.52
2022-11-14T03:18:36.881Z,23.90
2022-11-14T03:18:49.939Z,22.87
2022-11-14T03:19:02.860Z,22.52
2022-11-14T03:19:15.813Z,23.50
2022-11-14T03:19:28.698Z,22.52
2022-11-14T03:19:41.589Z,22.45
2022-11-14T03:19:54.487Z,23.30
2022-11-14T03:20:07.983Z,24.40
2022-11-14T03:20:21.782Z,23.42
2022-11-14T03:20:34.960Z,23.83
2022-11-14T03:20:47.873Z,24.83
2022-11-14T03:21:21.491Z,23.23
2022-11-14T03:21:34.302Z,24.02
2022-11-14T03:21:47.307Z,25.02
2022-11-14T03:22:20.048Z,24.17
2022-11-14T03:22:32.827Z,23.35
2022-11-14T03:22:45.712Z,23.73
2022-11-14T03:22:58.590Z,24.50
2022-11-14T03:23:11.377Z,23.45
2022-11-14T03:23:24.174Z,21.80
2022-11-14T03:23:37.199Z,22.45
2022-11-14T03:23:50.196Z,23.60
2022-11-14T03:24:24.548Z,23.23
2022-11-14T03:24:37.434Z,23.27
2022-11-14T03:24:50.254Z,24.92
2022-11-14T03:25:03.363Z,24.00
2022-11-14T03:25:16.265Z,23.95
2022-11-14T03:25:32.096Z,23.02
2022-11-14T03:25:44.922Z,23.95
2022-11-14T03:26:01.055Z,24.52
2022-11-14T03:26:14.236Z,24.30
2022-11-14T03:26:27.256Z,24.42
2022-11-14T03:26:40.255Z,23.70
2022-11-14T03:26:53.155Z,24.40
2022-11-14T03:27:06.431Z,24.08
2022-11-14T03:27:39.167Z,24.85
2022-11-14T03:27:51.991Z,24.30
2022-11-14T03:28:43.581Z,23.42
2022-11-14T03:28:56.426Z,23.10
2022-11-14T03:29:09.363Z,22.52
2022-11-14T03:29:22.187Z,21.55
2022-11-14T03:29:35.045Z,21.85
2022-11-14T03:29:48.815Z,23.23
2022-11-14T03:30:22.711Z,24.10
2022-11-14T03:30:35.539Z,24.45
2022-11-14T03:31:08.914Z,24.92
2022-11-14T03:31:41.663Z,24.40
2022-11-14T03:32:14.510Z,24.17
2022-11-14T03:32:27.321Z,22.90
2022-11-14T03:32:40.503Z,23.60
2022-11-14T03:32:53.811Z,24.10
2022-11-14T03:33:07.059Z,23.35
2022-11-14T03:33:39.776Z,27.13
2022-11-14T03:33:53.125Z,26.27
2022-11-14T03:34:25.857Z,25.00
2022-11-14T03:34:39.562Z,25.44
2022-11-14T03:34:52.434Z,24.30
2022-11-14T03:35:06.906Z,23.40
2022-11-14T03:35:19.759Z,23.08
2022-11-14T03:35:52.724Z,24.80
2022-11-14T03:36:06.471Z,24.58
2022-11-14T03:36:19.350Z,23.77
2022-11-14T03:36:32.185Z,25.02
2022-11-14T03:37:15.072Z,22.95
2022-11-14T03:37:27.937Z,23.65
2022-11-14T03:37:40.847Z,25.83
2022-11-14T03:37:56.315Z,25.50
2022-11-14T03:38:09.678Z,26.58
2022-11-14T03:38:25.242Z,26.87
2022-11-14T03:38:38.231Z,24.90
2022-11-14T03:38:51.030Z,22.13
2022-11-14T03:39:04.009Z,21.75
2022-11-14T03:39:16.932Z,21.70
2022-11-14T03:39:29.952Z,21.70
2022-11-14T03:39:42.890Z,21.50
2022-11-14T03:40:35.117Z,22.33
2022-11-14T03:40:48.691Z,21.60
2022-11-14T03:41:01.682Z,22.20
2022-11-14T03:41:14.581Z,23.55
2022-11-14T03:41:47.339Z,23.45
2022-11-14T03:42:00.310Z,24.17
2022-11-14T03:42:13.417Z,25.05
2022-11-14T03:42:26.342Z,24.05
2022-11-14T03:42:59.088Z,24.17
2022-11-14T03:43:12.075Z,24.55
2022-11-14T03:43:24.899Z,22.45
2022-11-14T03:43:37.745Z,21.30
2022-11-14T03:43:50.616Z,22.20
2022-11-14T03:44:03.489Z,23.42
2022-11-14T03:44:36.242Z,22.95
2022-11-14T03:44:49.518Z,22.40
2022-11-14T03:45:02.864Z,23.42
2022-11-14T03:45:15.687Z,23.87
2022-11-14T03:45:28.636Z,23.52
2022-11-14T03:45:41.573Z,23.30
2022-11-14T03:45:54.416Z,23.17
2022-11-14T03:46:07.283Z,23.27
2022-11-14T03:46:20.147Z,23.38
2022-11-14T03:46:53.274Z,25.15